createdAt,value
2019-02-11T00:00:47.992Z,44.10
2019-02-11T00:03:59.454Z,44.00
2019-02-11T00:07:01.988Z,44.70
2019-02-11T00:10:08.156Z,44.20
2019-02-11T00:13:14.013Z,43.90
2019-02-11T00:16:19.764Z,43.80
2019-02-11T00:19:25.659Z,43.90
2019-02-11T00:22:31.480Z,44.00
2019-02-11T00:25:37.332Z,44.10
2019-02-11T00:28:43.191Z,44.10
2019-02-11T00:31:49.050Z,44.20
2019-02-11T00:34:54.740Z,44.20
2019-02-11T00:38:00.560Z,44.30
2019-02-11T00:41:06.521Z,44.30
2019-02-11T00:44:12.276Z,44.20
2019-02-11T00:47:18.236Z,44.20
2019-02-11T00:50:24.039Z,44.20
2019-02-11T00:53:29.952Z,44.20
2019-02-11T00:56:37.129Z,44.20
2019-02-11T00:59:42.780Z,44.30
2019-02-11T01:02:48.649Z,44.20
2019-02-11T01:05:54.532Z,44.20
2019-02-11T01:09:00.355Z,44.20
2019-02-11T01:12:06.315Z,44.20
2019-02-11T01:15:13.239Z,44.20
2019-02-11T01:18:19.044Z,44.20
2019-02-11T01:21:24.740Z,44.20
2019-02-11T01:24:30.560Z,44.10
2019-02-11T01:27:36.312Z,44.20
2019-02-11T01:30:42.216Z,44.10
2019-02-11T01:33:48.136Z,44.00
2019-02-11T01:36:54.096Z,44.00
2019-02-11T01:40:00.089Z,43.90
2019-02-11T01:43:06.019Z,43.90
2019-02-11T01:46:11.913Z,43.90
2019-02-11T01:49:17.840Z,43.90
2019-02-11T01:52:23.799Z,43.90
2019-02-11T01:55:29.692Z,43.80
2019-02-11T01:58:35.512Z,43.80
2019-02-11T02:01:41.368Z,43.90
2019-02-11T02:04:47.436Z,43.80
2019-02-11T02:07:53.188Z,43.60
2019-02-11T02:10:58.989Z,43.50
2019-02-11T02:14:04.848Z,43.50
2019-02-11T02:17:10.657Z,43.60
2019-02-11T02:20:16.440Z,43.60
2019-02-11T02:23:22.364Z,41.70
2019-02-11T02:26:28.017Z,41.30
2019-02-11T02:29:33.921Z,41.40
2019-02-11T02:32:39.740Z,41.50
2019-02-11T02:35:45.637Z,41.60
2019-02-11T02:38:51.452Z,41.60
2019-02-11T02:41:57.318Z,41.50
2019-02-11T02:45:03.112Z,41.30
2019-02-11T02:48:09.035Z,41.30
2019-02-11T02:51:14.717Z,41.40
2019-02-11T02:54:20.577Z,41.20
2019-02-11T02:57:26.497Z,41.10
2019-02-11T03:00:32.492Z,41.10
2019-02-11T03:03:38.444Z,41.00
2019-02-11T03:06:44.272Z,41.00
2019-02-11T03:09:50.080Z,41.70
2019-02-11T03:12:55.781Z,40.90
2019-02-11T03:16:01.543Z,40.90
2019-02-11T03:19:07.540Z,40.70
2019-02-11T03:22:13.461Z,40.60
2019-02-11T03:25:19.357Z,40.50
2019-02-11T03:28:25.316Z,40.50
2019-02-11T03:31:31.141Z,40.50
2019-02-11T03:34:37.132Z,40.40
2019-02-11T03:37:43.053Z,40.30
2019-02-11T03:40:48.915Z,40.30
2019-02-11T03:43:54.773Z,40.30
2019-02-11T03:47:00.628Z,40.20
2019-02-11T03:50:07.104Z,40.20
2019-02-11T03:53:13.060Z,40.10
2019-02-11T03:56:19.031Z,40.10
2019-02-11T03:59:24.774Z,40.00
2019-02-11T04:02:30.542Z,40.00
2019-02-11T04:05:36.397Z,39.80
2019-02-11T04:08:42.039Z,40.00
2019-02-11T04:11:47.795Z,40.00
2019-02-11T04:14:53.652Z,39.80
2019-02-11T04:17:59.448Z,39.90
2019-02-11T04:21:05.304Z,39.80
2019-02-11T04:24:11.123Z,40.10
2019-02-11T04:27:17.084Z,40.00
2019-02-11T04:30:22.935Z,39.80
2019-02-11T04:33:28.701Z,39.90
2019-02-11T04:36:34.496Z,39.90
2019-02-11T04:39:40.307Z,39.70
2019-02-11T04:42:46.064Z,40.10
2019-02-11T04:45:51.929Z,39.90
2019-02-11T04:48:57.886Z,39.80
2019-02-11T04:52:03.577Z,39.90
2019-02-11T04:55:09.392Z,39.80
2019-02-11T04:58:15.538Z,40.00
2019-02-11T05:01:21.300Z,40.10
2019-02-11T05:04:27.069Z,40.10
2019-02-11T05:07:32.876Z,40.00
2019-02-11T05:10:38.784Z,39.90
2019-02-11T05:13:44.536Z,40.10
2019-02-11T05:16:50.288Z,40.10
2019-02-11T05:19:56.252Z,40.00
2019-02-11T05:23:02.049Z,40.10
2019-02-11T05:26:07.856Z,40.00
2019-02-11T05:29:13.615Z,40.00
2019-02-11T05:32:19.477Z,39.90
2019-02-11T05:35:25.336Z,39.90
2019-02-11T05:38:31.344Z,39.90
2019-02-11T05:41:37.155Z,40.00
2019-02-11T05:44:43.010Z,40.00
2019-02-11T05:47:48.763Z,40.00
2019-02-11T05:50:54.412Z,39.90
2019-02-11T05:54:00.105Z,39.90
2019-02-11T05:57:05.925Z,40.00
2019-02-11T06:00:14.209Z,40.00
2019-02-11T06:03:20.213Z,39.90
2019-02-11T06:06:26.060Z,39.80
2019-02-11T06:09:31.851Z,39.80
2019-02-11T06:12:37.664Z,39.70
2019-02-11T06:15:43.420Z,39.70
2019-02-11T06:18:49.329Z,39.50
2019-02-11T06:21:55.143Z,39.50
2019-02-11T06:25:01.055Z,40.20
2019-02-11T06:28:06.951Z,39.50
2019-02-11T06:31:12.940Z,39.50
2019-02-11T06:34:18.946Z,39.50
2019-02-11T06:37:24.741Z,39.50
2019-02-11T06:40:30.469Z,39.60
2019-02-11T06:43:36.448Z,39.50
2019-02-11T06:46:42.256Z,39.50
2019-02-11T06:49:48.100Z,39.40
2019-02-11T06:52:54.072Z,39.50
2019-02-11T06:56:00.084Z,39.50
2019-02-11T06:59:05.893Z,39.50
2019-02-11T07:02:11.807Z,39.40
2019-02-11T07:05:17.812Z,39.40
2019-02-11T07:08:23.689Z,39.30
2019-02-11T07:11:29.592Z,39.50
2019-02-11T07:14:35.385Z,39.40
2019-02-11T07:17:41.299Z,39.40
2019-02-11T07:20:47.195Z,39.40
2019-02-11T07:23:53.016Z,39.30
2019-02-11T07:26:58.705Z,39.60
2019-02-11T07:30:04.895Z,39.80
2019-02-11T07:33:10.790Z,40.10
2019-02-11T07:36:17.955Z,40.40
2019-02-11T07:39:23.944Z,43.90
2019-02-11T07:42:48.528Z,45.00
2019-02-11T07:45:58.025Z,63.10
2019-02-11T07:49:03.837Z,52.90
2019-02-11T07:52:09.724Z,52.20
2019-02-11T07:55:15.751Z,40.60
2019-02-11T07:58:21.673Z,42.70
2019-02-11T08:01:27.832Z,43.30
2019-02-11T08:04:33.899Z,43.60
2019-02-11T08:07:39.798Z,44.70
2019-02-11T08:10:45.807Z,44.20
2019-02-11T08:13:51.608Z,43.50
2019-02-11T08:16:57.532Z,44.20
2019-02-11T08:20:04.432Z,44.60
2019-02-11T08:23:13.756Z,46.40
2019-02-11T08:26:19.041Z,45.60
2019-02-11T08:29:24.896Z,46.00
2019-02-11T08:32:30.652Z,44.90
2019-02-11T08:35:36.612Z,44.80
2019-02-11T08:38:42.368Z,44.50
2019-02-11T08:41:48.328Z,44.60
2019-02-11T08:44:54.188Z,44.80
2019-02-11T08:48:00.354Z,44.70
2019-02-11T08:51:06.209Z,44.50
2019-02-11T08:54:12.264Z,44.50
2019-02-11T08:57:17.921Z,44.50
2019-02-11T09:00:23.673Z,44.40
2019-02-11T09:03:29.537Z,44.40
2019-02-11T09:06:35.391Z,44.30
2019-02-11T09:09:41.260Z,44.10
2019-02-11T09:12:46.908Z,43.90
2019-02-11T09:15:55.382Z,43.80
2019-02-11T09:19:00.048Z,43.60
2019-02-11T09:22:07.541Z,43.50
2019-02-11T09:25:13.303Z,43.40
2019-02-11T09:28:19.060Z,43.70
2019-02-11T09:31:24.924Z,44.50
2019-02-11T09:34:30.714Z,44.60
2019-02-11T09:37:36.796Z,44.60
2019-02-11T09:40:44.052Z,44.60
2019-02-11T09:43:50.101Z,44.40
2019-02-11T09:46:56.057Z,44.20
2019-02-11T09:50:14.136Z,44.00
2019-02-11T09:53:19.840Z,43.90
2019-02-11T09:56:25.717Z,43.80
2019-02-11T09:59:32.919Z,43.60
2019-02-11T10:02:38.952Z,43.80
2019-02-11T10:05:44.752Z,43.70
2019-02-11T10:08:50.580Z,43.60
2019-02-11T10:11:56.528Z,43.60
2019-02-11T10:15:02.355Z,43.80
2019-02-11T10:18:08.336Z,43.40
2019-02-11T10:21:14.236Z,43.50
2019-02-11T10:24:20.188Z,44.10
2019-02-11T10:27:26.140Z,51.80
2019-02-11T10:30:32.120Z,51.90
2019-02-11T10:33:38.145Z,47.00
2019-02-11T10:36:44.004Z,43.00
2019-02-11T10:39:49.794Z,42.30
2019-02-11T10:42:55.605Z,40.90
2019-02-11T10:46:01.408Z,40.30
2019-02-11T10:49:07.224Z,41.10
2019-02-11T10:52:13.194Z,40.10
2019-02-11T10:55:19.307Z,39.90
2019-02-11T10:58:25.408Z,40.10
2019-02-11T11:01:31.412Z,38.60
2019-02-11T11:04:37.437Z,39.90
2019-02-11T11:07:43.408Z,42.80
2019-02-11T11:10:49.325Z,43.50
2019-02-11T11:13:55.408Z,44.00
2019-02-11T11:17:01.412Z,44.30
2019-02-11T11:20:09.111Z,44.50
2019-02-11T11:23:15.260Z,44.60
2019-02-11T11:26:21.138Z,44.80
2019-02-11T11:29:27.092Z,44.80
2019-02-11T11:32:32.848Z,44.90
2019-02-11T11:35:38.812Z,44.80
2019-02-11T11:38:44.636Z,45.30
2019-02-11T11:41:50.533Z,44.90
2019-02-11T11:44:56.446Z,44.70
2019-02-11T11:48:02.344Z,44.60
2019-02-11T11:51:08.308Z,44.40
2019-02-11T11:54:14.239Z,44.40
2019-02-11T11:57:20.099Z,44.20
2019-02-11T12:00:27.431Z,44.20
2019-02-11T12:03:33.130Z,44.10
2019-02-11T12:06:50.000Z,44.20
2019-02-11T12:09:55.702Z,44.40
2019-02-11T12:13:20.642Z,44.50
2019-02-11T12:16:10.804Z,44.50
2019-02-11T12:19:18.233Z,44.40
2019-02-11T12:22:24.158Z,44.40
2019-02-11T12:25:29.801Z,44.40
2019-02-11T12:28:35.471Z,44.20
2019-02-11T12:31:41.320Z,44.10
2019-02-11T12:34:47.276Z,44.00
2019-02-11T12:37:53.212Z,44.00
2019-02-11T12:40:59.032Z,43.40
2019-02-11T12:44:04.754Z,43.60
2019-02-11T12:47:14.441Z,43.10
2019-02-11T12:50:18.347Z,43.00
2019-02-11T12:53:24.069Z,43.10
2019-02-11T12:56:29.914Z,42.90
2019-02-11T12:59:35.643Z,42.80
2019-02-11T13:02:41.600Z,42.50
2019-02-11T13:05:47.234Z,42.50
2019-02-11T13:08:52.995Z,42.50
2019-02-11T13:11:59.001Z,42.30
2019-02-11T13:15:05.023Z,42.10
2019-02-11T13:18:10.851Z,42.10
2019-02-11T13:21:16.575Z,42.00
2019-02-11T13:24:22.496Z,41.90
2019-02-11T13:27:28.280Z,41.90
2019-02-11T13:30:34.284Z,41.80
2019-02-11T13:33:40.071Z,41.80
2019-02-11T13:36:45.971Z,41.50
2019-02-11T13:39:52.095Z,41.70
2019-02-11T13:42:58.010Z,41.00
2019-02-11T13:46:04.115Z,42.20
2019-02-11T13:49:11.678Z,41.80
2019-02-11T13:52:17.718Z,41.50
2019-02-11T13:55:23.843Z,41.20
2019-02-11T13:58:29.823Z,41.00
2019-02-11T14:01:35.936Z,40.60
2019-02-11T14:04:41.946Z,40.50
2019-02-11T14:07:48.027Z,41.00
2019-02-11T14:10:53.953Z,40.00
2019-02-11T14:14:03.187Z,39.80
2019-02-11T14:17:07.501Z,39.50
2019-02-11T14:20:21.342Z,39.30
2019-02-11T14:23:27.245Z,39.10
2019-02-11T14:26:33.202Z,39.00
2019-02-11T14:29:39.126Z,38.90
2019-02-11T14:32:45.339Z,38.90
2019-02-11T14:35:51.396Z,38.70
2019-02-11T14:38:57.357Z,38.50
2019-02-11T14:42:03.263Z,38.40
2019-02-11T14:45:10.417Z,38.20
2019-02-11T14:48:27.522Z,38.00
2019-02-11T14:51:24.052Z,38.00
2019-02-11T14:54:30.117Z,37.80
2019-02-11T14:57:36.076Z,37.70
2019-02-11T15:00:41.932Z,37.60
2019-02-11T15:03:48.032Z,37.50
2019-02-11T15:06:53.868Z,37.40
2019-02-11T15:09:59.972Z,37.30
2019-02-11T15:13:05.774Z,37.20
2019-02-11T15:16:11.634Z,37.00
2019-02-11T15:19:17.494Z,37.10
2019-02-11T15:22:23.258Z,36.60
2019-02-11T15:25:28.956Z,36.50
2019-02-11T15:28:34.709Z,36.30
2019-02-11T15:31:40.688Z,36.10
2019-02-11T15:34:46.527Z,36.00
2019-02-11T15:37:52.393Z,35.90
2019-02-11T15:40:58.345Z,35.80
2019-02-11T15:44:03.999Z,35.70
2019-02-11T15:47:09.849Z,35.50
2019-02-11T15:50:16.284Z,35.50
2019-02-11T15:53:22.184Z,35.50
2019-02-11T15:56:27.840Z,35.50
2019-02-11T15:59:33.801Z,35.40
2019-02-11T16:02:39.808Z,35.40
2019-02-11T16:05:49.779Z,35.30
2019-02-11T16:08:52.908Z,35.40
2019-02-11T16:11:58.799Z,35.30
2019-02-11T16:15:04.933Z,35.30
2019-02-11T16:18:10.829Z,35.20
2019-02-11T16:21:17.806Z,35.20
2019-02-11T16:24:23.863Z,35.20
2019-02-11T16:27:29.743Z,35.10
2019-02-11T16:30:35.656Z,34.90
2019-02-11T16:33:41.513Z,34.90
2019-02-11T16:36:47.509Z,34.80
2019-02-11T16:39:53.429Z,34.70
2019-02-11T16:42:59.392Z,34.70
2019-02-11T16:46:05.449Z,34.50
2019-02-11T16:49:11.516Z,34.50
2019-02-11T16:52:17.305Z,34.50
2019-02-11T16:55:23.435Z,34.40
2019-02-11T16:58:29.397Z,34.40
2019-02-11T17:01:35.502Z,34.20
2019-02-11T17:04:41.516Z,34.10
2019-02-11T17:07:47.526Z,34.30
2019-02-11T17:10:53.340Z,34.10
2019-02-11T17:13:59.092Z,34.20
2019-02-11T17:17:04.772Z,34.30
2019-02-11T17:20:11.621Z,34.10
2019-02-11T17:23:17.621Z,33.60
2019-02-11T17:26:23.434Z,34.10
2019-02-11T17:29:29.196Z,34.30
2019-02-11T17:32:35.636Z,34.20
2019-02-11T17:35:41.637Z,34.20
2019-02-11T17:38:47.539Z,34.20
2019-02-11T17:41:53.656Z,34.10
2019-02-11T17:44:59.405Z,34.10
2019-02-11T17:48:05.520Z,34.00
2019-02-11T17:51:11.432Z,34.00
2019-02-11T17:54:17.220Z,34.00
2019-02-11T17:57:23.285Z,33.90
2019-02-11T18:00:37.024Z,34.00
2019-02-11T18:03:42.844Z,34.00
2019-02-11T18:06:48.810Z,33.90
2019-02-11T18:09:54.600Z,33.80
2019-02-11T18:13:00.454Z,33.70
2019-02-11T18:16:06.381Z,33.80
2019-02-11T18:19:12.278Z,34.40
2019-02-11T18:22:18.803Z,33.60
2019-02-11T18:25:24.772Z,31.70
2019-02-11T18:28:32.381Z,32.50
2019-02-11T18:31:39.304Z,33.60
2019-02-11T18:34:47.560Z,34.10
2019-02-11T18:37:53.948Z,34.10
2019-02-11T18:41:00.111Z,33.70
2019-02-11T18:44:05.749Z,33.70
2019-02-11T18:47:11.860Z,33.50
2019-02-11T18:50:18.084Z,33.40
2019-02-11T18:53:23.992Z,33.40
2019-02-11T18:56:29.860Z,33.30
2019-02-11T18:59:35.716Z,33.30
2019-02-11T19:02:41.626Z,33.20
2019-02-11T19:05:47.437Z,33.10
2019-02-11T19:08:53.246Z,32.90
2019-02-11T19:11:59.153Z,32.90
2019-02-11T19:15:05.416Z,32.80
2019-02-11T19:18:11.372Z,32.70
2019-02-11T19:21:20.018Z,32.50
2019-02-11T19:24:26.526Z,32.40
2019-02-11T19:27:35.349Z,32.40
2019-02-11T19:30:42.068Z,32.40
2019-02-11T19:33:50.943Z,32.40
2019-02-11T19:37:01.224Z,32.40
2019-02-11T19:40:10.146Z,32.40
2019-02-11T19:43:16.013Z,32.40
2019-02-11T19:46:21.868Z,32.40
2019-02-11T19:49:27.764Z,32.30
2019-02-11T19:52:33.576Z,32.20
2019-02-11T19:55:39.332Z,32.10
2019-02-11T19:58:45.304Z,32.00
2019-02-11T20:01:51.113Z,32.00
2019-02-11T20:04:57.019Z,32.00
2019-02-11T20:08:02.769Z,32.00
2019-02-11T20:11:08.593Z,32.80
2019-02-11T20:14:14.480Z,33.50
2019-02-11T20:17:20.237Z,34.00
2019-02-11T20:20:25.969Z,34.50
2019-02-11T20:23:31.744Z,34.70
2019-02-11T20:26:37.716Z,35.20
2019-02-11T20:29:43.780Z,35.50
2019-02-11T20:32:49.732Z,35.70
2019-02-11T20:35:55.384Z,35.60
2019-02-11T20:39:01.244Z,36.10
2019-02-11T20:42:08.838Z,36.30
2019-02-11T20:45:17.670Z,36.70
2019-02-11T20:48:23.687Z,36.60
2019-02-11T20:51:31.125Z,36.50
2019-02-11T20:54:36.884Z,36.40
2019-02-11T20:57:42.985Z,36.60
2019-02-11T21:00:48.940Z,36.60
2019-02-11T21:03:54.913Z,36.00
2019-02-11T21:07:00.812Z,36.10
2019-02-11T21:10:07.800Z,36.20
2019-02-11T21:13:13.796Z,37.00
2019-02-11T21:16:19.651Z,36.30
2019-02-11T21:19:25.580Z,36.40
2019-02-11T21:22:31.440Z,36.40
2019-02-11T21:25:37.194Z,36.20
2019-02-11T21:28:42.885Z,36.30
2019-02-11T21:31:48.704Z,36.30
2019-02-11T21:34:54.664Z,36.30
2019-02-11T21:38:00.957Z,36.30
2019-02-11T21:41:06.682Z,36.50
2019-02-11T21:44:12.477Z,36.50
2019-02-11T21:47:18.408Z,36.50
2019-02-11T21:50:26.845Z,36.40
2019-02-11T21:53:31.692Z,36.20
2019-02-11T21:56:37.504Z,36.20
2019-02-11T21:59:43.400Z,36.50
2019-02-11T22:02:49.334Z,36.30
2019-02-11T22:05:55.190Z,36.40
2019-02-11T22:09:00.988Z,36.30
2019-02-11T22:12:06.892Z,36.20
2019-02-11T22:15:14.703Z,36.50
2019-02-11T22:18:20.597Z,36.40
2019-02-11T22:21:26.408Z,36.50
2019-02-11T22:24:32.206Z,36.80
2019-02-11T22:27:38.141Z,37.10
2019-02-11T22:30:43.890Z,37.00
2019-02-11T22:33:49.792Z,37.10
2019-02-11T22:36:55.632Z,37.10
2019-02-11T22:40:01.392Z,37.10
2019-02-11T22:43:08.346Z,37.00
2019-02-11T22:46:14.093Z,37.00
2019-02-11T22:49:19.932Z,37.00
2019-02-11T22:52:25.812Z,37.00
2019-02-11T22:55:33.412Z,36.90
2019-02-11T22:58:39.304Z,36.90
2019-02-11T23:01:45.439Z,36.90
2019-02-11T23:04:51.336Z,37.00
2019-02-11T23:07:57.460Z,36.80
2019-02-11T23:11:03.359Z,37.10
2019-02-11T23:14:09.316Z,37.20
2019-02-11T23:17:15.236Z,37.30
2019-02-11T23:20:21.132Z,37.50
2019-02-11T23:23:27.101Z,37.60
2019-02-11T23:26:33.353Z,37.50
2019-02-11T23:29:39.313Z,37.80
2019-02-11T23:32:45.131Z,36.80
2019-02-11T23:35:50.893Z,36.00
2019-02-11T23:38:56.755Z,36.70
2019-02-11T23:42:02.606Z,36.70
2019-02-11T23:45:08.672Z,36.70
2019-02-11T23:48:14.836Z,36.80
2019-02-11T23:51:20.593Z,36.80
2019-02-11T23:54:26.345Z,36.90
2019-02-11T23:57:32.200Z,36.90
